Time;durP1;ratioP1;P1;durP2;ratioP2;P2;SDS_P1;SDS_P2;PMS_P1;PMS_P2;Temp;Humidity;BMP_temperature;BMP_pressure;BME280_temperature;BME280_humidity;BME280_pressure;Samples;Min_cycle;Max_cycle;Signal;HPM_P1;HPM_P2
2022/05/22 00:02:26;;;;;;;2.35;1.27;;;19.50;55.00;;;;;;5112796;28;20109;-72
2022/05/22 00:04:52;;;;;;;2.78;1.20;;;19.50;55.00;;;;;;5112551;28;20078;-72
2022/05/22 00:07:20;;;;;;;2.65;1.23;;;19.40;55.00;;;;;;5112591;28;20088;-72
2022/05/22 00:09:48;;;;;;;2.70;1.33;;;19.40;55.00;;;;;;5111926;28;20440;-72
2022/05/22 00:12:15;;;;;;;1.75;1.27;;;19.40;55.00;;;;;;5112115;28;20054;-72
2022/05/22 00:14:42;;;;;;;2.13;1.00;;;19.40;55.00;;;;;;5112324;28;20143;-72
2022/05/22 00:17:09;;;;;;;2.67;1.25;;;19.40;55.00;;;;;;5112515;28;20484;-72
2022/05/22 00:19:36;;;;;;;2.70;1.10;;;19.40;55.00;;;;;;5111832;28;20667;-72
2022/05/22 00:22:03;;;;;;;3.15;1.30;;;19.40;55.00;;;;;;5111379;28;20054;-72
2022/05/22 00:24:30;;;;;;;2.05;1.20;;;19.40;55.10;;;;;;5113076;28;20051;-72
2022/05/22 00:27:00;;;;;;;3.33;1.10;;;19.30;55.10;;;;;;5111984;28;20052;-72
2022/05/22 00:29:27;;;;;;;3.30;1.25;;;19.40;55.10;;;;;;5111980;28;20048;-72
2022/05/22 00:31:53;;;;;;;3.20;1.27;;;18.40;59.40;;;;;;5111950;28;20064;-72
2022/05/22 00:34:20;;;;;;;1.42;0.98;;;19.30;55.10;;;;;;5111930;28;20063;-72
2022/05/22 00:36:47;;;;;;;3.58;1.33;;;19.30;55.00;;;;;;5111904;28;20395;-72
2022/05/22 00:39:13;;;;;;;2.55;1.20;;;19.20;59.50;;;;;;5111785;28;20058;-72
2022/05/22 00:41:40;;;;;;;1.38;1.00;;;19.30;55.10;;;;;;5112712;28;20054;-72
2022/05/22 00:44:08;;;;;;;2.58;1.33;;;19.30;55.10;;;;;;5111805;28;20062;-72
2022/05/22 00:46:35;;;;;;;2.75;1.30;;;19.30;55.10;;;;;;5111875;28;20062;-72
2022/05/22 00:49:06;;;;;;;2.08;1.10;;;19.30;55.10;;;;;;5112934;28;20389;-72
2022/05/22 00:51:34;;;;;;;3.60;1.38;;;19.20;55.10;;;;;;5111492;28;20056;-72
2022/05/22 00:54:04;;;;;;;2.05;1.10;;;19.20;55.10;;;;;;5111530;28;20047;-72
2022/05/22 00:56:35;;;;;;;3.92;1.55;;;19.20;55.10;;;;;;5111159;28;20051;-72
2022/05/22 00:59:01;;;;;;;1.27;1.02;;;19.30;55.10;;;;;;5112607;28;20047;-72
2022/05/22 01:01:29;;;;;;;2.58;1.30;;;19.90;59.60;;;;;;5111355;28;20062;-72
2022/05/22 01:03:56;;;;;;;1.63;1.00;;;19.10;59.20;;;;;;5111587;28;20059;-72
2022/05/22 01:06:25;;;;;;;2.40;1.05;;;19.20;55.10;;;;;;5112268;28;20047;-72
2022/05/22 01:08:52;;;;;;;1.67;1.00;;;19.10;59.40;;;;;;5112490;28;20048;-72
2022/05/22 01:11:20;;;;;;;2.65;1.35;;;19.20;55.20;;;;;;5111269;28;20079;-72
2022/05/22 01:13:48;;;;;;;1.88;1.20;;;19.20;55.20;;;;;;5112385;28;20052;-72
2022/05/22 01:16:15;;;;;;;1.88;1.10;;;19.80;60.10;;;;;;5111405;28;20051;-72
2022/05/22 01:18:44;;;;;;;2.47;1.30;;;19.10;58.60;;;;;;5110984;28;20070;-72
2022/05/22 01:21:12;;;;;;;2.35;1.10;;;19.20;60.70;;;;;;5110642;28;20054;-72
2022/05/22 01:23:40;;;;;;;3.05;1.38;;;19.20;55.30;;;;;;5111255;28;20051;-72
2022/05/22 01:26:06;;;;;;;2.63;1.00;;;19.10;59.30;;;;;;5112450;28;20069;-72
2022/05/22 01:28:33;;;;;;;2.53;1.30;;;18.90;58.00;;;;;;5111977;28;20054;-72
2022/05/22 01:31:00;;;;;;;2.80;1.10;;;19.20;55.30;;;;;;5110977;28;20062;-72
2022/05/22 01:33:27;;;;;;;1.80;1.13;;;19.80;60.00;;;;;;5110827;28;20087;-72
2022/05/22 01:35:53;;;;;;;2.17;1.15;;;19.10;55.20;;;;;;5111859;28;20055;-72
2022/05/22 01:38:20;;;;;;;2.30;1.20;;;19.10;55.20;;;;;;5112415;28;20071;-72
2022/05/22 01:40:48;;;;;;;2.60;1.20;;;19.10;59.80;;;;;;5111787;28;20050;-72
2022/05/22 01:43:15;;;;;;;1.73;1.08;;;18.90;58.80;;;;;;5111157;28;20379;-72
2022/05/22 01:45:42;;;;;;;1.80;1.20;;;18.40;59.70;;;;;;5110699;28;20057;-72
2022/05/22 01:48:11;;;;;;;3.28;1.27;;;19.40;59.60;;;;;;5110707;28;20052;-72
2022/05/22 01:50:38;;;;;;;1.85;1.20;;;19.10;55.30;;;;;;5110844;28;20052;-72
2022/05/22 01:53:05;;;;;;;3.63;1.20;;;19.10;55.30;;;;;;5111084;28;20086;-72
2022/05/22 01:55:31;;;;;;;2.38;1.50;;;19.00;55.20;;;;;;5110714;28;20055;-72
2022/05/22 01:58:00;;;;;;;2.63;1.25;;;19.10;55.20;;;;;;5110918;28;20056;-72
2022/05/22 02:00:27;;;;;;;1.67;1.23;;;19.00;55.20;;;;;;5110315;28;20127;-72
2022/05/22 02:02:54;;;;;;;3.00;1.30;;;19.00;60.10;;;;;;5111994;28;20090;-72
2022/05/22 02:05:21;;;;;;;2.40;1.20;;;19.00;55.20;;;;;;5111635;28;20051;-72
2022/05/22 02:10:33;;;;;;;1.70;1.10;;;19.00;55.20;;;;;;5110302;28;20152;-72
2022/05/22 02:13:01;;;;;;;2.38;1.20;;;19.10;60.40;;;;;;5110840;28;20079;-72
2022/05/22 02:15:28;;;;;;;2.25;1.58;;;19.00;60.10;;;;;;5111609;28;20054;-72
2022/05/22 02:17:55;;;;;;;3.25;1.20;;;19.00;55.20;;;;;;5110799;28;20426;-72
2022/05/22 02:20:22;;;;;;;2.70;1.20;;;19.00;55.20;;;;;;5110253;28;20114;-72
2022/05/22 02:22:49;;;;;;;1.70;1.10;;;19.00;55.20;;;;;;5110748;28;20055;-72
2022/05/22 02:25:17;;;;;;;1.95;1.10;;;19.20;59.30;;;;;;5110376;28;20140;-72
2022/05/22 02:27:44;;;;;;;1.50;1.10;;;19.00;55.20;;;;;;5110222;28;20047;-72
2022/05/22 02:30:14;;;;;;;1.92;1.30;;;19.00;55.20;;;;;;5110248;28;20403;-72
2022/05/22 02:32:40;;;;;;;2.15;1.27;;;19.00;60.10;;;;;;5111682;28;20130;-72
2022/05/22 02:35:08;;;;;;;2.38;1.40;;;19.20;59.70;;;;;;5110501;28;20051;-72
2022/05/22 02:37:40;;;;;;;1.27;1.10;;;19.00;55.20;;;;;;5110639;28;20054;-72
2022/05/22 02:40:09;;;;;;;1.98;1.10;;;19.00;55.30;;;;;;5110192;28;20105;-72
2022/05/22 02:42:38;;;;;;;2.20;1.20;;;19.00;55.30;;;;;;5110291;28;20055;-72
2022/05/22 02:45:06;;;;;;;2.15;1.10;;;18.90;55.30;;;;;;5112361;28;20411;-74
2022/05/22 02:47:34;;;;;;;2.10;1.10;;;18.00;59.10;;;;;;5114148;28;20051;-72
2022/05/22 02:50:01;;;;;;;1.98;1.20;;;19.00;60.70;;;;;;5113764;28;20123;-72
2022/05/22 02:52:27;;;;;;;1.60;1.17;;;18.90;55.20;;;;;;5113834;28;20054;-73
2022/05/22 02:54:54;;;;;;;2.45;1.25;;;18.90;55.20;;;;;;5113952;28;20054;-72
2022/05/22 02:57:22;;;;;;;3.63;1.30;;;19.80;60.20;;;;;;5113741;28;20055;-72
2022/05/22 02:59:49;;;;;;;2.58;1.20;;;18.90;59.40;;;;;;5113656;28;20051;-72
2022/05/22 03:02:15;;;;;;;2.28;1.17;;;18.90;55.20;;;;;;5113624;28;20059;-73
2022/05/22 03:04:43;;;;;;;2.03;1.10;;;18.90;55.20;;;;;;5114671;28;20048;-73
2022/05/22 03:07:11;;;;;;;1.52;1.08;;;18.90;55.20;;;;;;5113745;28;20051;-73
2022/05/22 03:09:37;;;;;;;1.90;1.40;;;19.90;60.80;;;;;;5113211;28;20055;-72
2022/05/22 03:12:07;;;;;;;2.30;1.23;;;19.00;59.50;;;;;;5113356;28;20047;-73
2022/05/22 03:14:34;;;;;;;2.22;1.27;;;18.90;55.20;;;;;;5113441;28;20067;-72
2022/05/22 03:17:01;;;;;;;1.45;1.10;;;18.90;55.20;;;;;;5113313;28;20051;-72
2022/05/22 03:19:27;;;;;;;1.40;1.10;;;18.10;59.10;;;;;;5113063;28;20735;-72
2022/05/22 03:21:55;;;;;;;1.83;1.20;;;18.90;55.20;;;;;;5113228;28;20080;-72
2022/05/22 03:24:22;;;;;;;1.63;1.20;;;18.90;55.10;;;;;;5113474;28;20055;-72
2022/05/22 03:26:49;;;;;;;2.50;1.15;;;18.90;55.10;;;;;;5113161;28;20056;-73
2022/05/22 03:29:16;;;;;;;1.67;1.30;;;18.90;55.20;;;;;;5113306;28;20066;-72
2022/05/22 03:31:43;;;;;;;1.15;1.02;;;18.40;59.80;;;;;;5114133;28;20048;-73
2022/05/22 03:34:10;;;;;;;1.88;1.20;;;19.00;59.30;;;;;;5113180;28;20091;-72
2022/05/22 03:36:39;;;;;;;1.77;1.13;;;18.90;55.20;;;;;;5112721;28;20043;-72
2022/05/22 03:39:08;;;;;;;2.67;1.20;;;18.90;59.80;;;;;;5114077;28;20146;-72
2022/05/22 03:41:35;;;;;;;1.77;1.08;;;18.90;55.20;;;;;;5112622;28;20073;-72
2022/05/22 03:44:01;;;;;;;2.13;1.42;;;18.50;58.90;;;;;;5112881;28;20158;-73
2022/05/22 03:46:28;;;;;;;2.00;1.30;;;18.80;60.10;;;;;;5113781;28;20047;-72
2022/05/22 03:48:55;;;;;;;2.05;1.20;;;18.90;55.10;;;;;;5112773;28;20374;-73
2022/05/22 03:51:22;;;;;;;2.40;1.20;;;18.90;55.20;;;;;;5113818;28;20047;-72
2022/05/22 03:53:48;;;;;;;1.90;1.20;;;19.70;60.30;;;;;;5098071;28;20048;-72
2022/05/22 03:56:17;;;;;;;2.25;1.15;;;18.90;55.10;;;;;;5089204;28;20060;-73
2022/05/22 03:58:44;;;;;;;1.67;1.10;;;18.90;55.10;;;;;;5093299;28;20050;-72
2022/05/22 04:01:11;;;;;;;1.38;1.10;;;18.90;55.10;;;;;;5091929;28;20051;-74
2022/05/22 04:03:38;;;;;;;2.05;1.23;;;18.90;55.10;;;;;;5092222;28;20058;-72
2022/05/22 04:06:06;;;;;;;1.85;1.23;;;18.90;55.10;;;;;;5092147;28;20074;-73
2022/05/22 04:08:33;;;;;;;1.50;1.10;;;18.90;58.20;;;;;;5091873;28;20393;-72
2022/05/22 04:11:05;;;;;;;2.20;1.08;;;18.90;55.10;;;;;;5091685;28;20135;-73
2022/05/22 04:13:34;;;;;;;1.80;1.20;;;18.90;55.00;;;;;;5092193;28;20052;-73
2022/05/22 04:16:00;;;;;;;1.92;1.45;;;18.60;58.90;;;;;;5092018;28;20052;-73
2022/05/22 04:18:27;;;;;;;1.27;1.10;;;19.00;58.40;;;;;;5091760;28;20086;-72
2022/05/22 04:20:54;;;;;;;1.50;1.10;;;18.90;55.00;;;;;;5091592;28;20052;-72
2022/05/22 04:26:05;;;;;;;2.05;1.10;;;18.80;55.00;;;;;;5126086;27;20052;-72
2022/05/22 04:28:33;;;;;;;1.55;1.00;;;18.20;58.00;;;;;;5092683;28;20408;-73
2022/05/22 04:31:00;;;;;;;1.60;0.98;;;18.80;55.00;;;;;;5091293;28;20052;-72
2022/05/22 04:33:27;;;;;;;1.70;1.20;;;18.80;55.00;;;;;;5091789;28;20059;-72
2022/05/22 04:35:53;;;;;;;1.45;1.10;;;18.70;59.50;;;;;;5091688;28;20052;-72
2022/05/22 04:38:20;;;;;;;1.63;1.10;;;18.80;54.90;;;;;;5091491;28;20047;-73
2022/05/22 04:40:54;;;;;;;1.40;0.90;;;19.90;60.00;;;;;;5091146;28;20048;-73
2022/05/22 04:43:21;;;;;;;1.35;1.00;;;18.90;55.00;;;;;;5091126;28;20056;-72
2022/05/22 04:45:50;;;;;;;1.75;1.10;;;18.80;54.90;;;;;;5091503;28;20052;-72
2022/05/22 04:48:17;;;;;;;1.60;1.17;;;18.80;54.90;;;;;;5091488;28;20059;-72
2022/05/22 04:50:45;;;;;;;1.50;1.20;;;18.80;54.90;;;;;;5091278;28;20056;-71
2022/05/22 04:53:12;;;;;;;1.55;1.20;;;18.80;59.70;;;;;;5092632;28;20048;-70
2022/05/22 04:55:38;;;;;;;2.92;1.77;;;18.80;54.90;;;;;;5092039;28;20052;-72
2022/05/22 04:58:05;;;;;;;2.22;1.20;;;18.80;54.60;;;;;;5091167;28;20416;-73
2022/05/22 05:00:32;;;;;;;2.00;1.30;;;19.10;59.40;;;;;;5092267;28;20070;-71
2022/05/22 05:03:00;;;;;;;2.30;1.30;;;18.80;54.50;;;;;;5091403;28;20135;-71
2022/05/22 05:05:27;;;;;;;2.42;1.30;;;18.80;54.40;;;;;;5091710;28;20533;-71
2022/05/22 05:07:54;;;;;;;1.88;1.10;;;18.80;59.00;;;;;;5090892;28;20542;-71
2022/05/22 05:10:21;;;;;;;2.80;1.33;;;18.80;54.30;;;;;;5090916;28;20066;-71
2022/05/22 05:12:48;;;;;;;1.65;1.20;;;18.80;58.70;;;;;;5091082;28;20059;-71
2022/05/22 05:15:17;;;;;;;1.83;1.30;;;18.80;54.30;;;;;;5090926;28;20058;-71
2022/05/22 05:17:44;;;;;;;2.63;1.20;;;18.80;54.40;;;;;;5092526;28;20057;-71
2022/05/22 05:20:13;;;;;;;2.83;1.42;;;18.80;59.90;;;;;;5090856;28;20047;-71
2022/05/22 05:22:40;;;;;;;1.95;1.25;;;18.90;54.60;;;;;;5098653;28;20049;-71
2022/05/22 05:25:07;;;;;;;2.25;1.13;;;18.80;54.60;;;;;;5101514;28;20771;-71
2022/05/22 05:27:34;;;;;;;1.67;1.25;;;18.90;54.80;;;;;;5122863;27;20056;-71
2022/05/22 05:30:01;;;;;;;1.58;1.13;;;18.40;59.20;;;;;;5100516;28;20498;-71
2022/05/22 05:32:28;;;;;;;1.75;1.20;;;18.80;54.80;;;;;;5101721;28;20385;-71
2022/05/22 05:34:57;;;;;;;2.20;1.17;;;18.80;54.90;;;;;;5097037;28;20082;-71
2022/05/22 05:37:25;;;;;;;2.75;1.48;;;18.50;59.80;;;;;;5094918;28;20699;-71
2022/05/22 05:39:52;;;;;;;7.88;1.58;;;18.90;54.90;;;;;;5091845;28;20056;-71
2022/05/22 05:42:19;;;;;;;1.42;1.10;;;19.40;59.70;;;;;;5090018;28;20052;-72
2022/05/22 05:44:46;;;;;;;3.42;1.10;;;18.90;54.90;;;;;;5092809;28;20505;-71
2022/05/22 05:47:13;;;;;;;3.95;1.50;;;19.00;55.00;;;;;;5095615;28;20055;-71
2022/05/22 05:49:40;;;;;;;4.75;1.90;;;19.00;54.90;;;;;;5090535;28;20713;-71
2022/05/22 05:52:07;;;;;;;6.50;1.45;;;19.10;54.90;;;;;;5090864;28;20412;-71
2022/05/22 05:54:35;;;;;;;2.50;1.48;;;19.10;54.80;;;;;;5090563;28;20056;-70
2022/05/22 05:57:02;;;;;;;3.75;1.40;;;19.20;54.70;;;;;;5090635;28;20062;-72
2022/05/22 05:59:29;;;;;;;4.10;1.30;;;19.30;54.40;;;;;;5124608;28;20131;-71
2022/05/22 06:01:55;;;;;;;2.47;1.20;;;19.70;58.90;;;;;;5124433;28;20044;-71
2022/05/22 06:04:22;;;;;;;2.53;1.40;;;19.50;54.00;;;;;;5090399;28;20060;-72
2022/05/22 06:06:49;;;;;;;2.25;1.25;;;19.70;53.80;;;;;;5090599;28;20113;-71
2022/05/22 06:09:15;;;;;;;2.90;1.30;;;19.90;57.60;;;;;;5090628;28;20408;-71
2022/05/22 06:11:43;;;;;;;4.28;1.33;;;19.90;53.30;;;;;;5090041;28;20063;-70
2022/05/22 06:14:10;;;;;;;3.13;1.63;;;20.00;53.00;;;;;;5090444;28;20268;-70
2022/05/22 06:16:37;;;;;;;2.17;1.45;;;20.10;52.80;;;;;;5090514;28;20056;-71
2022/05/22 06:19:04;;;;;;;2.33;1.23;;;19.00;57.40;;;;;;5091609;28;20382;-71
2022/05/22 06:21:31;;;;;;;3.20;1.17;;;20.30;52.40;;;;;;5094307;28;20050;-71
2022/05/22 06:23:57;;;;;;;1.77;1.17;;;20.40;52.20;;;;;;5094579;28;20058;-71
2022/05/22 06:26:24;;;;;;;2.38;1.20;;;20.60;56.80;;;;;;5094217;28;20507;-71
2022/05/22 06:28:52;;;;;;;2.28;1.35;;;20.60;51.90;;;;;;5094325;28;20066;-71
2022/05/22 06:31:19;;;;;;;2.22;1.30;;;20.70;51.70;;;;;;5093616;28;20059;-71
2022/05/22 06:33:46;;;;;;;2.55;1.20;;;20.80;51.60;;;;;;5094334;28;20066;-71
2022/05/22 06:36:14;;;;;;;1.83;1.20;;;21.80;56.30;;;;;;5094125;28;20056;-71
2022/05/22 06:41:25;;;;;;;3.40;1.20;;;21.10;51.10;;;;;;5127637;27;20044;-70
2022/05/22 06:43:53;;;;;;;2.67;1.20;;;21.10;51.00;;;;;;5094151;28;20052;-71
2022/05/22 06:46:20;;;;;;;4.32;1.50;;;21.20;50.80;;;;;;5094906;28;20050;-71
2022/05/22 06:48:46;;;;;;;2.60;1.48;;;21.20;55.00;;;;;;5108849;28;20055;-71
2022/05/22 06:51:13;;;;;;;4.82;1.75;;;21.40;50.50;;;;;;5113754;28;20052;-71
2022/05/22 06:53:40;;;;;;;2.03;1.40;;;21.40;50.30;;;;;;5114175;28;20055;-71
2022/05/22 06:56:07;;;;;;;2.65;1.50;;;21.50;54.90;;;;;;5113928;28;20509;-71
2022/05/22 06:58:34;;;;;;;2.30;1.27;;;21.70;52.90;;;;;;5114937;28;20046;-72
2022/05/22 07:01:02;;;;;;;1.25;1.00;;;21.60;50.00;;;;;;5113901;28;20047;-71
2022/05/22 07:03:28;;;;;;;2.47;1.15;;;21.70;50.00;;;;;;5101772;28;20051;-71
2022/05/22 07:05:55;;;;;;;1.90;1.30;;;21.80;50.00;;;;;;5094880;28;20087;-71
2022/05/22 07:08:22;;;;;;;2.05;1.27;;;21.80;49.90;;;;;;5092767;28;20056;-71
2022/05/22 07:13:33;;;;;;;2.97;1.40;;;22.10;55.30;;;;;;5092650;28;20040;-71
2022/05/22 07:16:00;;;;;;;3.92;1.48;;;22.10;54.50;;;;;;5093144;28;20052;-71
2022/05/22 07:18:28;;;;;;;4.57;1.48;;;21.60;51.90;;;;;;5093801;28;20040;-71
2022/05/22 07:20:55;;;;;;;2.28;1.27;;;22.10;49.60;;;;;;5091355;28;20044;-71
2022/05/22 07:23:21;;;;;;;3.40;1.20;;;22.10;49.50;;;;;;5092794;28;20078;-71
2022/05/22 07:25:48;;;;;;;3.45;1.33;;;22.20;49.40;;;;;;5094178;28;20052;-72
2022/05/22 07:28:15;;;;;;;1.88;1.27;;;22.20;49.30;;;;;;5093881;28;20392;-71
2022/05/22 07:30:41;;;;;;;2.90;1.38;;;22.30;49.30;;;;;;5088807;28;20139;-71
2022/05/22 07:33:08;;;;;;;3.97;1.40;;;22.30;49.20;;;;;;5092954;28;20048;-71
2022/05/22 07:35:36;;;;;;;3.40;1.38;;;22.40;54.20;;;;;;5092678;28;20117;-71
2022/05/22 07:38:03;;;;;;;2.13;1.20;;;22.40;49.20;;;;;;5093095;28;20135;-71
2022/05/22 07:40:30;;;;;;;12.32;1.70;;;22.40;49.10;;;;;;5093301;28;20058;-71
2022/05/22 07:42:56;;;;;;;2.47;1.40;;;22.50;49.10;;;;;;5092612;28;20059;-71
2022/05/22 07:45:24;;;;;;;4.10;1.30;;;22.50;49.10;;;;;;5093859;28;20048;-71
2022/05/22 07:47:52;;;;;;;2.63;1.40;;;22.50;49.10;;;;;;5092948;28;20052;-71
2022/05/22 07:50:20;;;;;;;1.70;1.17;;;22.70;53.30;;;;;;5091582;28;20056;-72
2022/05/22 07:52:49;;;;;;;1.90;1.25;;;22.60;49.20;;;;;;5092193;28;20048;-71
2022/05/22 07:55:17;;;;;;;2.25;1.20;;;22.60;49.10;;;;;;5092346;28;20047;-71
2022/05/22 07:57:44;;;;;;;3.03;1.33;;;22.60;49.10;;;;;;5091839;28;20083;-71
2022/05/22 08:00:11;;;;;;;3.03;1.33;;;22.60;49.10;;;;;;5091251;28;20062;-70
2022/05/22 08:02:39;;;;;;;2.25;1.20;;;21.50;52.30;;;;;;5125744;27;20056;-71
2022/05/22 08:05:07;;;;;;;2.90;1.20;;;22.70;49.10;;;;;;5091884;28;20058;-71
2022/05/22 08:07:33;;;;;;;2.35;1.08;;;22.70;49.00;;;;;;5092888;28;20082;-71
2022/05/22 08:10:02;;;;;;;2.28;1.20;;;22.80;49.10;;;;;;5092135;28;20056;-71
2022/05/22 08:12:28;;;;;;;2.28;1.25;;;22.80;49.00;;;;;;5091979;28;20052;-71
2022/05/22 08:14:55;;;;;;;2.67;1.20;;;22.70;54.80;;;;;;5093668;28;20438;-71
2022/05/22 08:17:22;;;;;;;2.50;1.20;;;22.80;49.10;;;;;;5091892;28;20055;-71
2022/05/22 08:19:49;;;;;;;2.85;1.25;;;22.80;49.00;;;;;;5091769;28;20480;-71
2022/05/22 08:22:16;;;;;;;3.40;1.30;;;22.80;49.00;;;;;;5093064;28;20074;-72
2022/05/22 08:24:42;;;;;;;2.65;1.30;;;22.80;49.00;;;;;;5092131;28;20492;-71
2022/05/22 08:27:10;;;;;;;3.10;1.40;;;22.80;53.70;;;;;;5091958;28;20051;-71
2022/05/22 08:29:37;;;;;;;2.20;1.13;;;22.60;53.00;;;;;;5091493;28;20060;-71
2022/05/22 08:32:05;;;;;;;1.58;1.17;;;22.80;48.90;;;;;;5091742;28;20052;-72
2022/05/22 08:34:32;;;;;;;2.95;1.10;;;22.70;48.90;;;;;;5125574;27;20109;-71
2022/05/22 08:36:58;;;;;;;2.97;1.30;;;22.70;49.00;;;;;;5091715;28;20058;-71
2022/05/22 08:39:25;;;;;;;2.17;1.08;;;22.70;49.00;;;;;;5092773;28;20056;-71
2022/05/22 08:41:52;;;;;;;1.90;1.00;;;22.70;49.00;;;;;;5091443;28;20044;-72
2022/05/22 08:44:23;;;;;;;2.80;1.20;;;22.70;49.60;;;;;;5073449;28;20417;-71
2022/05/22 08:46:58;;;;;;;2.25;1.00;;;22.60;53.10;;;;;;5090368;28;20078;-71
2022/05/22 08:49:28;;;;;;;2.45;1.05;;;22.50;54.20;;;;;;5090133;28;20503;-71
2022/05/22 08:51:56;;;;;;;4.32;1.23;;;22.50;49.10;;;;;;5091691;28;20084;-71
2022/05/22 08:54:26;;;;;;;2.85;1.30;;;22.50;49.20;;;;;;5090449;28;20070;-71
2022/05/22 08:59:42;;;;;;;2.50;1.30;;;22.40;49.40;;;;;;5124515;27;20044;-71
2022/05/22 09:02:22;;;;;;;2.10;1.10;;;22.20;49.50;;;;;;5091339;28;20052;-73
2022/05/22 09:04:52;;;;;;;1.75;1.17;;;22.20;49.60;;;;;;5091391;28;20059;-73
2022/05/22 09:07:21;;;;;;;3.03;1.52;;;22.10;49.70;;;;;;5091404;28;20059;-72
2022/05/22 09:09:49;;;;;;;2.00;1.17;;;23.10;54.20;;;;;;5090646;28;20051;-73
2022/05/22 09:12:36;;;;;;;4.43;1.20;;;22.10;49.90;;;;;;5091308;28;20079;-73
2022/05/22 09:15:07;;;;;;;2.08;1.25;;;22.10;50.00;;;;;;5091237;28;20056;-73
2022/05/22 09:17:37;;;;;;;1.92;1.25;;;22.10;50.00;;;;;;5092287;28;20044;-73
2022/05/22 09:20:09;;;;;;;2.85;1.17;;;22.10;49.90;;;;;;5090857;28;20056;-73
2022/05/22 09:22:38;;;;;;;1.30;1.00;;;22.20;50.00;;;;;;5091862;28;20048;-73
2022/05/22 09:25:10;;;;;;;2.25;1.17;;;22.50;54.30;;;;;;5090971;28;20473;-73
2022/05/22 09:27:43;;;;;;;3.05;1.20;;;22.20;54.20;;;;;;5091079;28;20467;-73
2022/05/22 09:30:14;;;;;;;3.13;1.40;;;22.20;54.70;;;;;;5091727;28;20048;-71
2022/05/22 09:32:57;;;;;;;2.03;1.20;;;22.20;49.90;;;;;;5090200;28;20054;-70
2022/05/22 09:35:31;;;;;;;1.98;1.30;;;22.20;54.20;;;;;;5090816;28;20058;-71
2022/05/22 09:38:08;;;;;;;2.33;1.20;;;22.10;49.90;;;;;;5123877;27;20472;-71
2022/05/22 09:40:44;;;;;;;2.05;1.00;;;22.10;50.00;;;;;;5089725;28;20048;-71
2022/05/22 09:43:44;;;;;;;2.75;1.20;;;21.90;53.70;;;;;;5090532;28;20055;-71
2022/05/22 09:46:31;;;;;;;1.65;1.20;;;22.00;50.20;;;;;;5085608;28;20062;-71
2022/05/22 09:49:07;;;;;;;3.35;1.38;;;22.00;50.20;;;;;;5090828;28;20054;-72
2022/05/22 09:51:38;;;;;;;3.53;1.45;;;22.00;54.80;;;;;;5089876;28;20054;-70
2022/05/22 09:54:13;;;;;;;4.95;1.10;;;22.00;50.20;;;;;;5092720;28;20044;-70
2022/05/22 09:56:42;;;;;;;;;;;22.00;50.20;;;;;;5095323;28;20056;-70
2022/05/22 09:59:26;;;;;;;6.00;1.85;;;22.00;50.40;;;;;;5095921;28;19927;-70
2022/05/22 10:01:55;;;;;;;2.40;1.17;;;22.00;50.30;;;;;;5094339;28;20070;-71
2022/05/22 10:04:28;;;;;;;7.32;2.00;;;22.00;50.20;;;;;;5094654;28;20074;-70
2022/05/22 10:06:58;;;;;;;2.08;1.23;;;22.00;50.60;;;;;;5095812;28;20052;-71
2022/05/22 10:09:29;;;;;;;2.97;1.23;;;22.00;50.00;;;;;;5094643;28;20137;-70
2022/05/22 10:12:03;;;;;;;93.82;32.13;;;23.10;54.50;;;;;;5094728;28;20048;-70
2022/05/22 10:14:44;;;;;;;33.55;14.13;;;22.00;50.20;;;;;;5094351;28;20052;-70
2022/05/22 10:17:23;;;;;;;13.13;5.50;;;22.10;50.20;;;;;;5094824;28;20135;-71
2022/05/22 10:19:52;;;;;;;15.27;5.70;;;22.10;50.20;;;;;;5095609;28;20447;-70
2022/05/22 10:22:23;;;;;;;17.60;7.25;;;22.10;50.20;;;;;;5095586;28;20066;-72
2022/05/22 10:25:02;;;;;;;17.42;6.57;;;22.20;53.90;;;;;;5094147;28;20056;-70
2022/05/22 10:27:43;;;;;;;17.23;6.78;;;22.10;50.10;;;;;;5094528;28;20088;-71
2022/05/22 10:30:12;;;;;;;14.50;6.45;;;22.10;50.10;;;;;;5093957;28;20054;-70
2022/05/22 10:32:43;;;;;;;17.70;6.45;;;22.10;50.10;;;;;;5094168;28;20050;-70
2022/05/22 10:35:11;;;;;;;20.73;7.47;;;22.10;50.10;;;;;;5094187;28;20052;-70
2022/05/22 10:37:40;;;;;;;19.13;7.13;;;22.10;50.10;;;;;;5093882;28;20076;-70
2022/05/22 10:40:08;;;;;;;17.15;6.70;;;22.20;50.20;;;;;;5094780;28;20058;-70
2022/05/22 10:42:45;;;;;;;17.50;7.47;;;22.20;50.20;;;;;;5093943;28;20499;-70
2022/05/22 10:45:21;;;;;;;17.08;6.93;;;22.20;50.20;;;;;;5093500;28;20051;-71
2022/05/22 10:47:49;;;;;;;22.30;7.32;;;22.20;50.10;;;;;;5128235;27;20508;-72
2022/05/22 10:50:19;;;;;;;17.63;7.20;;;22.20;50.20;;;;;;5094259;28;20131;-71
2022/05/22 10:52:46;;;;;;;14.68;6.40;;;22.20;50.30;;;;;;5093325;28;20044;-72
2022/05/22 10:55:31;;;;;;;15.93;5.57;;;22.30;54.70;;;;;;5092480;28;20048;-70
2022/05/22 10:57:58;;;;;;;12.85;5.93;;;22.10;49.90;;;;;;5093726;28;20067;-70
2022/05/22 11:00:26;;;;;;;13.68;5.75;;;21.30;54.30;;;;;;5092040;28;20404;-71
2022/05/22 11:02:54;;;;;;;16.48;5.88;;;22.20;50.30;;;;;;5092828;28;20044;-71
2022/05/22 11:05:23;;;;;;;14.88;5.60;;;22.10;50.30;;;;;;5093320;28;20055;-71
2022/05/22 11:07:51;;;;;;;16.10;6.32;;;22.10;50.30;;;;;;5092090;28;20055;-71
2022/05/22 11:10:22;;;;;;;16.25;6.40;;;22.10;50.30;;;;;;5093069;28;20141;-72
2022/05/22 11:13:03;;;;;;;14.00;4.82;;;22.10;54.20;;;;;;5093533;28;20139;-71
2022/05/22 11:15:31;;;;;;;114.80;38.30;;;21.80;54.30;;;;;;5093166;28;20131;-70
2022/05/22 11:18:04;;;;;;;39.75;15.32;;;22.10;50.60;;;;;;5093165;28;20091;-71
2022/05/22 11:20:31;;;;;;;20.50;8.43;;;22.10;50.70;;;;;;5094068;28;20048;-71
2022/05/22 11:23:03;;;;;;;19.52;7.10;;;22.00;50.70;;;;;;5093874;28;20444;-70
2022/05/22 11:25:35;;;;;;;18.65;7.45;;;22.00;54.60;;;;;;5093431;28;20058;-70
2022/05/22 11:28:21;;;;;;;19.88;8.45;;;22.00;50.70;;;;;;5093053;28;20054;-70
2022/05/22 11:30:51;;;;;;;21.42;7.95;;;22.00;50.70;;;;;;5094063;28;20650;-70
2022/05/22 11:33:27;;;;;;;26.63;9.02;;;22.00;50.80;;;;;;5093705;28;20048;-70
2022/05/22 11:35:57;;;;;;;20.63;7.45;;;22.10;54.40;;;;;;5092735;28;20051;-70
2022/05/22 11:38:42;;;;;;;19.08;6.90;;;21.80;51.00;;;;;;5093612;28;20050;-70
2022/05/22 11:41:15;;;;;;;20.10;7.13;;;21.80;51.00;;;;;;5092107;28;20087;-70
2022/05/22 11:43:51;;;;;;;16.42;6.60;;;21.90;51.10;;;;;;5092480;28;20044;-71
2022/05/22 11:46:21;;;;;;;20.65;6.72;;;21.90;51.00;;;;;;5092651;28;20070;-70
2022/05/22 11:49:05;;;;;;;15.40;6.43;;;21.90;51.00;;;;;;5093515;28;20390;-70
2022/05/22 11:51:46;;;;;;;13.50;5.80;;;21.90;50.90;;;;;;5092448;28;20067;-70
2022/05/22 11:54:36;;;;;;;14.15;6.05;;;22.00;55.40;;;;;;5092425;28;20131;-73
2022/05/22 11:57:19;;;;;;;14.73;5.50;;;21.90;55.40;;;;;;5092771;28;20058;-72
2022/05/22 12:00:11;;;;;;;13.15;5.32;;;22.00;51.00;;;;;;5092122;28;20056;-72
2022/05/22 12:02:46;;;;;;;12.20;4.70;;;22.00;51.00;;;;;;5092413;28;20060;-72
2022/05/22 12:05:22;;;;;;;13.00;5.18;;;22.00;51.00;;;;;;5101909;28;20055;-72
2022/05/22 12:08:05;;;;;;;13.27;5.05;;;22.00;51.00;;;;;;5100910;28;20040;-72
2022/05/22 12:10:32;;;;;;;12.50;5.10;;;22.00;51.00;;;;;;5091808;28;20052;-72
2022/05/22 12:13:01;;;;;;;12.35;4.78;;;22.10;55.40;;;;;;5103221;28;20074;-72
2022/05/22 12:15:32;;;;;;;13.43;4.40;;;21.60;55.30;;;;;;5093015;28;20048;-72
2022/05/22 12:18:01;;;;;;;12.32;4.18;;;22.00;51.10;;;;;;5092394;28;20105;-72
2022/05/22 12:20:31;;;;;;;12.57;4.47;;;23.30;56.30;;;;;;5091934;28;20066;-70
2022/05/22 12:23:10;;;;;;;11.77;5.00;;;22.30;55.70;;;;;;5092105;28;20056;-71
2022/05/22 12:25:41;;;;;;;12.32;4.38;;;22.70;55.20;;;;;;5091734;28;20060;-70
2022/05/22 12:28:19;;;;;;;10.70;4.20;;;21.90;51.20;;;;;;5093618;28;20055;-70
2022/05/22 12:30:46;;;;;;;11.65;4.60;;;21.90;51.20;;;;;;5090591;28;20133;-71
2022/05/22 12:33:13;;;;;;;8.27;4.05;;;21.90;51.20;;;;;;5091935;28;20408;-71
2022/05/22 12:35:42;;;;;;;8.48;4.07;;;21.80;56.10;;;;;;5091341;28;20056;-71
2022/05/22 12:38:09;;;;;;;9.13;4.32;;;21.90;51.30;;;;;;5090844;28;20054;-71
2022/05/22 12:40:44;;;;;;;9.48;4.28;;;21.90;51.20;;;;;;5090710;28;20079;-70
2022/05/22 12:43:11;;;;;;;7.72;3.20;;;22.10;51.40;;;;;;5089686;28;20050;-70
2022/05/22 12:45:38;;;;;;;8.10;3.72;;;22.00;55.40;;;;;;5090204;28;20052;-70
2022/05/22 12:48:13;;;;;;;7.72;3.58;;;21.90;51.20;;;;;;5090069;28;20056;-71
2022/05/22 12:50:49;;;;;;;9.88;3.58;;;22.00;51.20;;;;;;5091010;28;20545;-71
2022/05/22 12:53:18;;;;;;;10.27;4.13;;;22.00;51.20;;;;;;5092367;28;20435;-71
2022/05/22 12:55:45;;;;;;;7.85;3.40;;;22.00;51.20;;;;;;5090689;28;20066;-71
2022/05/22 12:58:29;;;;;;;7.55;3.47;;;22.00;51.80;;;;;;5091188;28;20058;-71
2022/05/22 13:00:56;;;;;;;10.43;3.65;;;21.90;53.00;;;;;;5092382;28;20055;-70
2022/05/22 13:03:25;;;;;;;8.75;3.30;;;22.00;51.20;;;;;;5092240;28;20062;-70
2022/05/22 13:05:58;;;;;;;10.50;3.55;;;22.50;54.70;;;;;;5091248;28;20143;-70
2022/05/22 13:08:27;;;;;;;6.68;3.60;;;22.00;51.10;;;;;;5091394;28;20159;-70
2022/05/22 13:10:55;;;;;;;9.60;3.47;;;22.30;51.30;;;;;;5090851;28;20073;-70